MSP weather

Minneapolis-St Paul International/Wold-Chamberlain Airport
Minneapolis, Minnesota, United States

Public forecast

Using degrees Fahrenheit for public forecast. Weather courtesy of forecast.io.

METAR (pilot weather report)

Retrieved 2017/11/24 12:53 UTC (28 minutes ago):

KMSP 241253Z 20009KT 10SM FEW160 09/04 A2937 RMK AO2 SLP949 T00890039

TAF (pilot weather forecast)

Retrieved 2017/11/24 12:36 UTC (45 minutes ago):

TAF KMSP 241134Z 2412/2518 20007KT P6SM FEW180 FM241500 22009KT P6SM BKN120 FM241700 26010KT P6SM VCSH BKN080 FM241900 28013G22KT P6SM SCT050 BKN100 FM250000 30015G25KT P6SM SKC FM250600 30010KT P6SM SKC